Hickory Hill, Arkansas
Current Conditions -  °F | °C
As of 6:53 AM on Friday 28 Nov 2014 (Local Time) from KRUE Reporting Station
Clear Clear  
Wind Chill: 29°   Ceiling: Unl
Heat Index: 29°   Visibility: 7mi
Dew Point: 26°   Wind: 0mph
Humidity: 89%   Direction: NA
Pressure: 30.33"   Gusts: NA
Location:  35.227°N, 92.6879°W
Report Text: KRUE 281253Z AUTO 00000KT 7SM CLR M02/M03 A3033 RMK AO2 SLP270 T10171033
Loading
Personal Weather Stations






























Interactive Weather Map New forecast layout! Learn more

10-Day Weather Forecast

Advertisements
Track Severe Weather on mobile